createdAt,value
2019-01-21T00:04:05.114Z,-3.60
2019-01-21T00:09:08.776Z,-3.66
2019-01-21T00:14:12.205Z,-3.54
2019-01-21T00:19:15.642Z,-3.72
2019-01-21T00:24:19.242Z,-3.83
2019-01-21T00:29:22.672Z,-3.92
2019-01-21T00:34:26.103Z,-3.83
2019-01-21T00:39:29.607Z,-4.12
2019-01-21T00:44:33.194Z,-4.05
2019-01-21T00:49:36.631Z,-4.44
2019-01-21T00:54:40.068Z,-4.37
2019-01-21T00:59:43.512Z,-4.29
2019-01-21T01:04:46.966Z,-4.03
2019-01-21T01:09:50.405Z,-3.86
2019-01-21T01:14:53.837Z,-3.79
2019-01-21T01:19:57.279Z,-3.74
2019-01-21T01:25:01.032Z,-3.71
2019-01-21T01:30:07.984Z,-3.65
2019-01-21T01:35:13.239Z,-3.69
2019-01-21T01:40:17.804Z,-3.91
2019-01-21T01:45:22.967Z,-4.17
2019-01-21T01:50:26.771Z,-3.91
2019-01-21T01:55:30.341Z,-3.82
2019-01-21T02:00:34.472Z,-3.92
2019-01-21T02:05:37.929Z,-3.90
2019-01-21T02:10:41.384Z,-3.84
2019-01-21T02:15:44.822Z,-3.86
2019-01-21T02:20:50.642Z,-3.89
2019-01-21T02:25:54.132Z,-3.94
2019-01-21T02:31:18.505Z,-3.84
2019-01-21T02:36:36.593Z,-3.77
2019-01-21T02:41:41.074Z,-4.17
2019-01-21T02:46:53.354Z,-4.38
2019-01-21T02:52:22.342Z,-4.16
2019-01-21T02:57:51.240Z,-4.49
2019-01-21T03:03:01.049Z,-4.48
2019-01-21T03:08:16.477Z,-4.62
2019-01-21T03:13:25.840Z,-4.62
2019-01-21T03:18:38.133Z,-4.43
2019-01-21T03:23:50.429Z,-4.29
2019-01-21T03:29:22.447Z,-4.61
2019-01-21T03:34:40.892Z,-4.88
2019-01-21T03:39:56.238Z,-4.53
2019-01-21T03:45:31.241Z,-4.64
2019-01-21T03:50:37.754Z,-4.71
2019-01-21T03:55:41.315Z,-5.08
2019-01-21T04:00:51.017Z,-4.93
2019-01-21T04:06:06.369Z,-5.14
2019-01-21T04:11:18.364Z,-5.07
2019-01-21T04:16:47.305Z,-5.20
2019-01-21T04:22:26.592Z,-5.42
2019-01-21T04:27:44.713Z,-5.30
2019-01-21T04:32:56.725Z,-5.25
2019-01-21T04:38:22.520Z,-5.46
2019-01-21T04:43:31.670Z,-5.03
2019-01-21T04:49:03.562Z,-4.87
2019-01-21T04:54:15.747Z,-4.77
2019-01-21T04:59:41.479Z,-5.01
2019-01-21T05:05:02.798Z,-5.15
2019-01-21T05:10:12.203Z,-5.26
2019-01-21T05:15:21.188Z,-5.22
2019-01-21T05:20:27.669Z,-5.47
2019-01-21T05:25:36.915Z,-5.51
2019-01-21T05:30:49.086Z,-5.45
2019-01-21T05:36:20.764Z,-5.47
2019-01-21T05:41:35.421Z,-5.39
2019-01-21T05:47:14.992Z,-5.31
2019-01-21T05:52:37.824Z,-5.37
2019-01-21T05:58:03.731Z,-5.45
2019-01-21T06:03:35.705Z,-5.54
2019-01-21T06:08:47.866Z,-5.63
2019-01-21T06:14:06.090Z,-5.78
2019-01-21T06:19:12.562Z,-5.81
2019-01-21T06:24:24.971Z,-5.34
2019-01-21T06:29:34.129Z,-5.32
2019-01-21T06:34:43.335Z,-5.30
2019-01-21T06:39:58.421Z,-5.28
2019-01-21T06:45:25.923Z,-5.14
2019-01-21T06:50:38.168Z,-5.02
2019-01-21T06:55:56.252Z,-5.25
2019-01-21T07:01:36.893Z,-5.11
2019-01-21T07:07:11.693Z,-5.31
2019-01-21T07:12:39.037Z,-5.28
2019-01-21T07:17:54.460Z,-5.14
2019-01-21T07:23:15.656Z,-5.13
2019-01-21T07:28:41.316Z,-5.20
2019-01-21T07:33:56.287Z,-5.23
2019-01-21T07:39:24.887Z,-5.01
2019-01-21T07:44:43.150Z,-5.09
2019-01-21T07:50:10.135Z,-5.08
2019-01-21T07:55:16.621Z,-5.04
2019-01-21T08:00:42.535Z,-5.21
2019-01-21T08:06:03.118Z,-5.15
2019-01-21T08:11:23.969Z,-4.94
2019-01-21T08:16:33.118Z,-4.84
2019-01-21T08:22:06.333Z,-4.94
2019-01-21T08:27:15.475Z,-4.70
2019-01-21T08:32:24.870Z,-4.69
2019-01-21T08:37:37.265Z,-4.67
2019-01-21T08:43:01.594Z,-4.55
2019-01-21T08:48:08.075Z,-4.79
2019-01-21T08:53:29.206Z,-5.20
2019-01-21T08:58:53.423Z,-5.23
2019-01-21T09:04:02.813Z,-5.15
2019-01-21T09:09:24.151Z,-5.13
2019-01-21T09:14:30.634Z,-4.96
2019-01-21T09:19:45.837Z,-4.79
2019-01-21T09:25:03.956Z,-4.58
2019-01-21T09:30:13.351Z,-4.40
2019-01-21T09:35:31.485Z,-4.05
2019-01-21T09:40:49.599Z,-3.64
2019-01-21T09:45:58.735Z,-3.43
2019-01-21T09:51:04.672Z,-3.23
2019-01-21T09:56:08.188Z,-3.05
2019-01-21T10:01:11.922Z,-2.89
2019-01-21T10:06:16.484Z,-2.53
2019-01-21T10:11:37.696Z,-2.46
2019-01-21T10:16:46.839Z,-1.86
2019-01-21T10:22:13.852Z,-1.39
2019-01-21T10:27:53.409Z,-1.13
2019-01-21T10:33:17.037Z,-0.67
2019-01-21T10:38:26.158Z,-0.46
2019-01-21T10:43:35.087Z,-0.30
2019-01-21T10:48:53.558Z,-0.12
2019-01-21T10:54:02.729Z,-0.09
2019-01-21T10:59:09.205Z,0.13
2019-01-21T11:04:36.546Z,0.17
2019-01-21T11:09:45.771Z,0.47
2019-01-21T11:14:58.001Z,0.62
2019-01-21T11:20:10.361Z,0.51
2019-01-21T11:25:42.310Z,0.78
2019-01-21T11:31:00.679Z,0.79
2019-01-21T11:36:39.598Z,0.82
2019-01-21T11:42:00.294Z,1.00
2019-01-21T11:47:06.769Z,1.11
2019-01-21T11:52:24.987Z,1.42
2019-01-21T11:57:34.239Z,1.58
2019-01-21T12:02:43.806Z,1.77
2019-01-21T12:08:04.951Z,1.76
2019-01-21T12:13:34.558Z,1.85
2019-01-21T12:18:49.994Z,1.75
2019-01-21T12:24:02.179Z,1.62
2019-01-21T12:29:14.206Z,1.49
2019-01-21T12:34:39.945Z,1.56
2019-01-21T12:40:01.027Z,1.54
2019-01-21T12:45:16.298Z,1.87
2019-01-21T12:50:52.188Z,1.98
2019-01-21T12:56:31.805Z,2.12
2019-01-21T13:01:44.233Z,2.23
2019-01-21T13:06:59.507Z,2.16
2019-01-21T13:12:08.667Z,1.92
2019-01-21T13:17:17.911Z,1.85
2019-01-21T13:22:33.316Z,1.83
2019-01-21T13:28:03.556Z,1.70
2019-01-21T13:33:24.421Z,1.78
2019-01-21T13:38:36.506Z,1.95
2019-01-21T13:43:43.052Z,2.10
2019-01-21T13:48:49.538Z,1.82
2019-01-21T13:54:13.677Z,1.81
2019-01-21T13:59:42.310Z,1.77
2019-01-21T14:04:54.917Z,1.75
2019-01-21T14:10:10.235Z,1.70
2019-01-21T14:15:25.235Z,1.60
2019-01-21T14:20:31.768Z,1.46
2019-01-21T14:25:42.011Z,1.29
2019-01-21T14:30:57.531Z,1.28
2019-01-21T14:36:25.037Z,1.15
2019-01-21T14:41:34.174Z,1.03
2019-01-21T14:47:01.093Z,0.90
2019-01-21T14:52:24.089Z,0.87
2019-01-21T14:57:36.395Z,0.75
2019-01-21T15:02:59.073Z,0.72
2019-01-21T15:08:05.563Z,0.66
2019-01-21T15:13:11.996Z,0.59
2019-01-21T15:18:36.385Z,0.48
2019-01-21T15:23:45.982Z,0.33
2019-01-21T15:28:55.063Z,0.19
2019-01-21T15:34:01.674Z,0.05
2019-01-21T15:39:10.750Z,-0.15
2019-01-21T15:44:17.299Z,-0.30
2019-01-21T15:49:23.760Z,-0.48
2019-01-21T15:54:52.450Z,-0.65
2019-01-21T16:00:17.054Z,-0.73
2019-01-21T16:05:29.613Z,-0.67
2019-01-21T16:10:55.665Z,-0.79
2019-01-21T16:16:14.003Z,-0.95
2019-01-21T16:21:45.858Z,-1.14
2019-01-21T16:27:00.966Z,-1.22
2019-01-21T16:32:04.493Z,-1.30
2019-01-21T16:37:20.031Z,-1.44
2019-01-21T16:42:22.666Z,-1.48
2019-01-21T16:47:26.643Z,-1.54
2019-01-21T16:52:30.175Z,-1.62
2019-01-21T16:57:33.621Z,-1.58
2019-01-21T17:02:37.165Z,-1.69
2019-01-21T17:07:40.736Z,-1.88
2019-01-21T17:12:44.328Z,-1.92
2019-01-21T17:17:47.776Z,-2.18
2019-01-21T17:22:51.332Z,-2.17
2019-01-21T17:27:54.762Z,-2.27
2019-01-21T17:32:58.202Z,-2.42
2019-01-21T17:38:01.668Z,-2.57
2019-01-21T17:43:05.445Z,-2.65
2019-01-21T17:48:08.907Z,-2.76
2019-01-21T17:53:12.420Z,-2.79
2019-01-21T17:58:16.091Z,-2.84
2019-01-21T18:03:19.511Z,-2.93
2019-01-21T18:08:22.952Z,-2.94
2019-01-21T18:13:26.380Z,-3.04
2019-01-21T18:18:29.891Z,-2.97
2019-01-21T18:23:33.335Z,-2.98
2019-01-21T18:28:36.805Z,-3.05
2019-01-21T18:33:40.306Z,-3.03
2019-01-21T18:38:43.879Z,-3.07
2019-01-21T18:43:47.289Z,-3.17
2019-01-21T18:48:51.550Z,-3.29
2019-01-21T18:53:55.061Z,-3.26
2019-01-21T18:58:58.652Z,-3.38
2019-01-21T19:04:02.116Z,-3.35
2019-01-21T19:09:07.597Z,-3.45
2019-01-21T19:14:11.068Z,-3.49
2019-01-21T19:19:14.509Z,-3.53
2019-01-21T19:24:17.943Z,-3.57
2019-01-21T19:29:21.366Z,-3.60
2019-01-21T19:34:24.806Z,-3.48
2019-01-21T19:39:28.243Z,-3.45
2019-01-21T19:44:32.570Z,-3.49
2019-01-21T19:49:35.997Z,-3.55
2019-01-21T19:54:39.436Z,-3.74
2019-01-21T19:59:42.913Z,-3.68
2019-01-21T20:04:46.352Z,-3.52
2019-01-21T20:09:49.775Z,-3.33
2019-01-21T20:14:53.308Z,-3.23
2019-01-21T20:19:56.742Z,-3.25
2019-01-21T20:25:00.231Z,-3.14
2019-01-21T20:30:05.547Z,-3.14
2019-01-21T20:35:09.126Z,-3.32
2019-01-21T20:40:18.701Z,-3.20
2019-01-21T20:45:23.274Z,-3.39
2019-01-21T20:50:31.594Z,-3.48
2019-01-21T20:55:35.032Z,-3.39
2019-01-21T21:00:38.477Z,-3.61
2019-01-21T21:05:41.970Z,-4.22
2019-01-21T21:10:45.475Z,-4.14
2019-01-21T21:15:48.899Z,-3.97
2019-01-21T21:20:52.335Z,-3.85
2019-01-21T21:25:55.766Z,-4.03
2019-01-21T21:30:59.206Z,-4.30
2019-01-21T21:36:02.646Z,-4.27
2019-01-21T21:41:06.066Z,-4.13
2019-01-21T21:46:09.496Z,-4.06
2019-01-21T21:51:12.920Z,-4.03
2019-01-21T21:56:16.350Z,-4.22
2019-01-21T22:01:23.929Z,-4.41
2019-01-21T22:06:24.948Z,-4.40
2019-01-21T22:11:28.370Z,-4.40
2019-01-21T22:16:32.178Z,-4.67
2019-01-21T22:21:35.617Z,-4.43
2019-01-21T22:26:39.036Z,-4.54
2019-01-21T22:31:42.479Z,-4.85
2019-01-21T22:36:45.914Z,-4.74
2019-01-21T22:41:49.352Z,-4.75
2019-01-21T22:46:52.872Z,-4.87
2019-01-21T22:51:56.291Z,-5.02
2019-01-21T22:56:59.787Z,-5.07
2019-01-21T23:02:03.333Z,-4.95
2019-01-21T23:07:06.903Z,-4.92
2019-01-21T23:12:10.321Z,-4.95
2019-01-21T23:17:13.779Z,-5.10
2019-01-21T23:22:17.391Z,-5.16
2019-01-21T23:27:20.813Z,-4.98
2019-01-21T23:32:24.271Z,-4.90
2019-01-21T23:37:27.702Z,-4.63
2019-01-21T23:42:31.141Z,-4.56
2019-01-21T23:47:34.634Z,-4.74
2019-01-21T23:52:38.067Z,-4.89
2019-01-21T23:57:41.509Z,-4.77
